sensor_id;sensor_type;location;lat;lon;timestamp;pressure;altitude;pressure_sealevel;temperature;humidity
62237;BME280;69163;48.778;2.308;2023-08-07T00:00:35;101225.88;;;18.67;41.41
62237;BME280;69163;48.778;2.308;2023-08-07T00:03:00;101231.42;;;18.37;41.51
62237;BME280;69163;48.778;2.308;2023-08-07T00:05:26;101227.84;;;18.33;41.58
62237;BME280;69163;48.778;2.308;2023-08-07T00:07:51;101233.31;;;18.62;41.52
62237;BME280;69163;48.778;2.308;2023-08-07T00:10:16;101228.60;;;18.36;41.54
62237;BME280;69163;48.778;2.308;2023-08-07T00:12:41;101233.23;;;18.44;41.44
62237;BME280;69163;48.778;2.308;2023-08-07T00:15:08;101234.04;;;18.42;41.46
62237;BME280;69163;48.778;2.308;2023-08-07T00:17:32;101236.18;;;18.38;41.50
62237;BME280;69163;48.778;2.308;2023-08-07T00:19:57;101235.27;;;18.38;41.52
62237;BME280;69163;48.778;2.308;2023-08-07T00:22:22;101232.35;;;18.39;41.50
62237;BME280;69163;48.778;2.308;2023-08-07T00:24:47;101233.63;;;18.36;41.55
62237;BME280;69163;48.778;2.308;2023-08-07T00:27:12;101234.56;;;18.22;41.44
62237;BME280;69163;48.778;2.308;2023-08-07T00:29:37;101241.73;;;18.46;41.43
62237;BME280;69163;48.778;2.308;2023-08-07T00:32:03;101236.46;;;18.67;41.48
62237;BME280;69163;48.778;2.308;2023-08-07T00:34:27;101231.62;;;18.49;41.41
62237;BME280;69163;48.778;2.308;2023-08-07T00:36:53;101235.73;;;18.54;41.31
62237;BME280;69163;48.778;2.308;2023-08-07T00:39:18;101233.89;;;18.72;41.38
62237;BME280;69163;48.778;2.308;2023-08-07T00:41:43;101231.64;;;18.44;41.44
62237;BME280;69163;48.778;2.308;2023-08-07T00:44:08;101233.26;;;18.47;41.41
62237;BME280;69163;48.778;2.308;2023-08-07T00:46:34;101233.12;;;18.43;41.45
62237;BME280;69163;48.778;2.308;2023-08-07T00:48:59;101230.56;;;18.47;41.40
62237;BME280;69163;48.778;2.308;2023-08-07T00:51:24;101229.30;;;18.45;41.43
62237;BME280;69163;48.778;2.308;2023-08-07T00:53:49;101232.46;;;18.46;41.41
62237;BME280;69163;48.778;2.308;2023-08-07T00:56:15;101228.37;;;18.43;41.44
62237;BME280;69163;48.778;2.308;2023-08-07T00:58:40;101227.91;;;18.42;41.46
62237;BME280;69163;48.778;2.308;2023-08-07T01:01:06;101226.78;;;18.42;41.44
62237;BME280;69163;48.778;2.308;2023-08-07T01:03:30;101227.61;;;18.80;41.58
62237;BME280;69163;48.778;2.308;2023-08-07T01:05:56;101224.84;;;18.33;41.58
62237;BME280;69163;48.778;2.308;2023-08-07T01:08:22;101222.85;;;18.16;41.50
62237;BME280;69163;48.778;2.308;2023-08-07T01:10:56;101219.10;;;18.18;41.45
62237;BME280;69163;48.778;2.308;2023-08-07T01:13:16;101219.74;;;18.37;41.51
62237;BME280;69163;48.778;2.308;2023-08-07T01:15:38;101218.70;;;18.36;41.50
62237;BME280;69163;48.778;2.308;2023-08-07T01:18:01;101220.72;;;18.34;41.54
62237;BME280;69163;48.778;2.308;2023-08-07T01:20:26;101218.81;;;18.51;41.64
62237;BME280;69163;48.778;2.308;2023-08-07T01:22:52;101219.71;;;18.34;41.56
62237;BME280;69163;48.778;2.308;2023-08-07T01:25:17;101217.50;;;18.29;41.66
62237;BME280;69163;48.778;2.308;2023-08-07T01:27:48;101214.83;;;18.27;41.56
62237;BME280;69163;48.778;2.308;2023-08-07T01:30:14;101213.97;;;18.41;41.76
62237;BME280;69163;48.778;2.308;2023-08-07T01:34:59;101210.10;;;18.23;41.71
62237;BME280;69163;48.778;2.308;2023-08-07T01:37:23;101205.47;;;18.46;41.71
62237;BME280;69163;48.778;2.308;2023-08-07T01:39:49;101209.13;;;18.52;41.62
62237;BME280;69163;48.778;2.308;2023-08-07T01:42:13;101211.66;;;18.03;41.66
62237;BME280;69163;48.778;2.308;2023-08-07T01:44:38;101215.63;;;18.37;41.53
62237;BME280;69163;48.778;2.308;2023-08-07T01:47:05;101218.44;;;18.89;41.44
62237;BME280;69163;48.778;2.308;2023-08-07T01:49:29;101218.52;;;18.84;41.50
62237;BME280;69163;48.778;2.308;2023-08-07T01:51:54;101222.19;;;18.38;41.47
62237;BME280;69163;48.778;2.308;2023-08-07T01:54:19;101221.20;;;18.42;41.41
62237;BME280;69163;48.778;2.308;2023-08-07T01:56:45;101220.97;;;18.63;41.44
62237;BME280;69163;48.778;2.308;2023-08-07T01:59:10;101223.52;;;18.38;41.44
62237;BME280;69163;48.778;2.308;2023-08-07T02:01:35;101226.41;;;18.30;41.56
62237;BME280;69163;48.778;2.308;2023-08-07T02:04:00;101232.76;;;18.53;41.58
62237;BME280;69163;48.778;2.308;2023-08-07T02:06:25;101228.99;;;18.57;41.54
62237;BME280;69163;48.778;2.308;2023-08-07T02:08:50;101229.37;;;18.88;41.44
62237;BME280;69163;48.778;2.308;2023-08-07T02:11:16;101225.12;;;18.56;41.53
62237;BME280;69163;48.778;2.308;2023-08-07T02:13:41;101222.45;;;18.28;41.58
62237;BME280;69163;48.778;2.308;2023-08-07T02:16:07;101224.57;;;18.26;41.62
62237;BME280;69163;48.778;2.308;2023-08-07T02:18:31;101219.56;;;18.27;41.61
62237;BME280;69163;48.778;2.308;2023-08-07T02:20:56;101222.79;;;18.22;41.67
62237;BME280;69163;48.778;2.308;2023-08-07T02:23:22;101215.08;;;18.43;41.69
62237;BME280;69163;48.778;2.308;2023-08-07T02:25:48;101217.50;;;18.24;41.65
62237;BME280;69163;48.778;2.308;2023-08-07T02:28:12;101218.63;;;18.28;41.59
62237;BME280;69163;48.778;2.308;2023-08-07T02:30:37;101220.77;;;18.30;41.56
62237;BME280;69163;48.778;2.308;2023-08-07T02:33:03;101214.99;;;18.46;41.64
62237;BME280;69163;48.778;2.308;2023-08-07T02:35:28;101216.91;;;18.54;41.54
62237;BME280;69163;48.778;2.308;2023-08-07T02:37:53;101217.80;;;18.60;41.48
62237;BME280;69163;48.778;2.308;2023-08-07T02:40:18;101219.54;;;18.49;41.60
62237;BME280;69163;48.778;2.308;2023-08-07T02:42:43;101220.55;;;18.51;41.59
62237;BME280;69163;48.778;2.308;2023-08-07T02:45:09;101220.43;;;18.24;41.61
62237;BME280;69163;48.778;2.308;2023-08-07T02:47:34;101220.26;;;18.21;41.66
62237;BME280;69163;48.778;2.308;2023-08-07T02:49:59;101221.23;;;18.27;41.62
62237;BME280;69163;48.778;2.308;2023-08-07T02:52:24;101219.29;;;18.29;41.56
62237;BME280;69163;48.778;2.308;2023-08-07T02:54:49;101218.55;;;18.27;41.58
62237;BME280;69163;48.778;2.308;2023-08-07T02:57:15;101216.79;;;18.25;41.60
62237;BME280;69163;48.778;2.308;2023-08-07T02:59:40;101221.90;;;18.05;41.56
62237;BME280;69163;48.778;2.308;2023-08-07T03:02:06;101214.42;;;18.20;41.66
62237;BME280;69163;48.778;2.308;2023-08-07T03:04:30;101217.37;;;18.19;41.63
62237;BME280;69163;48.778;2.308;2023-08-07T03:06:55;101220.61;;;18.19;41.69
62237;BME280;69163;48.778;2.308;2023-08-07T03:09:20;101224.19;;;18.64;41.72
62237;BME280;69163;48.778;2.308;2023-08-07T03:11:45;101221.71;;;18.74;41.60
62237;BME280;69163;48.778;2.308;2023-08-07T03:14:11;101225.08;;;18.25;41.62
62237;BME280;69163;48.778;2.308;2023-08-07T03:16:36;101224.79;;;18.43;41.66
62237;BME280;69163;48.778;2.308;2023-08-07T03:19:01;101224.81;;;18.56;41.51
62237;BME280;69163;48.778;2.308;2023-08-07T03:21:27;101230.29;;;18.29;41.57
62237;BME280;69163;48.778;2.308;2023-08-07T03:23:52;101228.65;;;18.43;41.68
62237;BME280;69163;48.778;2.308;2023-08-07T03:26:17;101230.78;;;18.35;41.79
62237;BME280;69163;48.778;2.308;2023-08-07T03:28:42;101233.81;;;18.18;41.70
62237;BME280;69163;48.778;2.308;2023-08-07T03:31:08;101236.41;;;18.16;41.73
62237;BME280;69163;48.778;2.308;2023-08-07T03:33:33;101237.52;;;18.16;41.73
62237;BME280;69163;48.778;2.308;2023-08-07T03:35:58;101241.20;;;18.15;41.75
62237;BME280;69163;48.778;2.308;2023-08-07T03:38:23;101238.70;;;18.15;41.73
62237;BME280;69163;48.778;2.308;2023-08-07T03:40:49;101239.00;;;18.34;41.81
62237;BME280;69163;48.778;2.308;2023-08-07T03:43:14;101242.15;;;18.10;41.79
62237;BME280;69163;48.778;2.308;2023-08-07T03:45:39;101241.52;;;18.15;41.74
62237;BME280;69163;48.778;2.308;2023-08-07T03:48:04;101241.67;;;18.10;41.81
62237;BME280;69163;48.778;2.308;2023-08-07T03:50:29;101238.00;;;18.37;41.77
62237;BME280;69163;48.778;2.308;2023-08-07T03:52:54;101239.24;;;18.15;41.73
62237;BME280;69163;48.778;2.308;2023-08-07T03:55:20;101239.16;;;18.19;41.68
62237;BME280;69163;48.778;2.308;2023-08-07T03:57:45;101236.07;;;18.18;41.69
62237;BME280;69163;48.778;2.308;2023-08-07T04:00:11;101231.50;;;18.40;41.69
62237;BME280;69163;48.778;2.308;2023-08-07T04:02:35;101234.36;;;18.17;41.71
62237;BME280;69163;48.778;2.308;2023-08-07T04:05:00;101237.94;;;18.16;41.73
62237;BME280;69163;48.778;2.308;2023-08-07T04:07:26;101240.93;;;18.13;41.73
62237;BME280;69163;48.778;2.308;2023-08-07T04:09:51;101242.41;;;18.09;41.83
62237;BME280;69163;48.778;2.308;2023-08-07T04:12:16;101241.83;;;18.07;41.85
62237;BME280;69163;48.778;2.308;2023-08-07T04:14:41;101241.61;;;18.31;41.86
62237;BME280;69163;48.778;2.308;2023-08-07T04:17:07;101241.56;;;18.11;41.77
62237;BME280;69163;48.778;2.308;2023-08-07T04:19:32;101241.84;;;18.32;41.82
62237;BME280;69163;48.778;2.308;2023-08-07T04:21:57;101244.45;;;18.42;41.68
62237;BME280;69163;48.778;2.308;2023-08-07T04:24:22;101247.39;;;18.17;41.70
62237;BME280;69163;48.778;2.308;2023-08-07T04:26:48;101246.91;;;18.58;41.76
62237;BME280;69163;48.778;2.308;2023-08-07T04:29:12;101247.67;;;18.35;41.79
62237;BME280;69163;48.778;2.308;2023-08-07T04:31:38;101246.93;;;18.32;41.82
62237;BME280;69163;48.778;2.308;2023-08-07T04:34:03;101244.06;;;18.32;41.80
62237;BME280;69163;48.778;2.308;2023-08-07T04:36:28;101242.83;;;18.38;41.70
62237;BME280;69163;48.778;2.308;2023-08-07T04:38:53;101244.10;;;18.43;41.65
62237;BME280;69163;48.778;2.308;2023-08-07T04:41:18;101243.62;;;18.12;41.72
62237;BME280;69163;48.778;2.308;2023-08-07T04:43:44;101245.27;;;18.56;41.79
62237;BME280;69163;48.778;2.308;2023-08-07T04:46:08;101245.73;;;18.14;41.73
62237;BME280;69163;48.778;2.308;2023-08-07T04:48:34;101248.48;;;18.34;41.78
62237;BME280;69163;48.778;2.308;2023-08-07T04:50:59;101250.03;;;18.10;41.78
62237;BME280;69163;48.778;2.308;2023-08-07T04:53:24;101251.89;;;18.54;41.83
62237;BME280;69163;48.778;2.308;2023-08-07T04:55:50;101253.74;;;18.07;41.84
62237;BME280;69163;48.778;2.308;2023-08-07T04:58:15;101254.61;;;18.33;41.79
62237;BME280;69163;48.778;2.308;2023-08-07T05:00:40;101256.79;;;18.35;41.77
62237;BME280;69163;48.778;2.308;2023-08-07T05:03:06;101260.35;;;18.41;41.68
62237;BME280;69163;48.778;2.308;2023-08-07T05:05:31;101263.32;;;18.09;41.78
62237;BME280;69163;48.778;2.308;2023-08-07T05:07:57;101264.24;;;18.16;41.70
62237;BME280;69163;48.778;2.308;2023-08-07T05:10:21;101269.36;;;18.08;41.83
62237;BME280;69163;48.778;2.308;2023-08-07T05:12:46;101270.34;;;18.11;41.77
62237;BME280;69163;48.778;2.308;2023-08-07T05:15:12;101270.64;;;18.10;41.77
62237;BME280;69163;48.778;2.308;2023-08-07T05:17:36;101270.87;;;18.10;41.77
62237;BME280;69163;48.778;2.308;2023-08-07T05:20:01;101268.83;;;18.29;41.87
62237;BME280;69163;48.778;2.308;2023-08-07T05:22:26;101269.01;;;18.03;41.87
62237;BME280;69163;48.778;2.308;2023-08-07T05:24:52;101268.79;;;18.30;41.86
62237;BME280;69163;48.778;2.308;2023-08-07T05:27:18;101270.93;;;18.31;41.83
62237;BME280;69163;48.778;2.308;2023-08-07T05:29:43;101271.52;;;17.98;41.97
62237;BME280;69163;48.778;2.308;2023-08-07T05:32:08;101273.11;;;18.08;41.84
62237;BME280;69163;48.778;2.308;2023-08-07T05:34:33;101276.52;;;18.07;41.87
62237;BME280;69163;48.778;2.308;2023-08-07T05:36:58;101277.84;;;18.06;41.88
62237;BME280;69163;48.778;2.308;2023-08-07T05:39:23;101280.86;;;18.09;41.84
62237;BME280;69163;48.778;2.308;2023-08-07T05:41:49;101278.73;;;18.37;41.79
62237;BME280;69163;48.778;2.308;2023-08-07T05:44:14;101279.54;;;17.87;41.81
62237;BME280;69163;48.778;2.308;2023-08-07T05:46:39;101280.63;;;18.06;41.88
62237;BME280;69163;48.778;2.308;2023-08-07T05:49:04;101284.42;;;18.18;42.07
62237;BME280;69163;48.778;2.308;2023-08-07T05:51:29;101287.00;;;18.46;42.02
62237;BME280;69163;48.778;2.308;2023-08-07T05:53:54;101287.33;;;18.15;42.14
62237;BME280;69163;48.778;2.308;2023-08-07T05:56:20;101285.85;;;18.25;42.03
62237;BME280;69163;48.778;2.308;2023-08-07T05:58:45;101285.10;;;17.94;42.11
62237;BME280;69163;48.778;2.308;2023-08-07T06:01:10;101284.19;;;17.96;42.10
62237;BME280;69163;48.778;2.308;2023-08-07T06:03:36;101287.05;;;18.13;42.20
62237;BME280;69163;48.778;2.308;2023-08-07T06:06:01;101287.83;;;17.90;42.19
62237;BME280;69163;48.778;2.308;2023-08-07T06:08:26;101288.15;;;18.09;42.28
62237;BME280;69163;48.778;2.308;2023-08-07T06:10:51;101287.08;;;18.12;42.26
62237;BME280;69163;48.778;2.308;2023-08-07T06:13:16;101286.09;;;17.89;42.26
62237;BME280;69163;48.778;2.308;2023-08-07T06:15:42;101283.41;;;17.95;42.16
62237;BME280;69163;48.778;2.308;2023-08-07T06:18:07;101286.84;;;17.99;42.11
62237;BME280;69163;48.778;2.308;2023-08-07T06:20:33;101292.15;;;17.97;42.15
62237;BME280;69163;48.778;2.308;2023-08-07T06:22:57;101296.24;;;18.01;42.10
62237;BME280;69163;48.778;2.308;2023-08-07T06:25:22;101299.20;;;18.00;42.13
62237;BME280;69163;48.778;2.308;2023-08-07T06:27:47;101300.45;;;18.16;42.25
62237;BME280;69163;48.778;2.308;2023-08-07T06:30:13;101302.73;;;18.17;42.25
62237;BME280;69163;48.778;2.308;2023-08-07T06:32:38;101304.81;;;18.17;42.26
62237;BME280;69163;48.778;2.308;2023-08-07T06:35:04;101303.63;;;17.93;42.24
62237;BME280;69163;48.778;2.308;2023-08-07T06:37:28;101304.59;;;18.01;42.14
62237;BME280;69163;48.778;2.308;2023-08-07T06:39:53;101312.40;;;18.23;42.19
62237;BME280;69163;48.778;2.308;2023-08-07T06:42:19;101312.87;;;18.01;42.16
62237;BME280;69163;48.778;2.308;2023-08-07T06:44:44;101314.06;;;18.25;42.15
62237;BME280;69163;48.778;2.308;2023-08-07T06:47:08;101317.42;;;17.94;42.30
62237;BME280;69163;48.778;2.308;2023-08-07T06:49:34;101319.91;;;18.18;42.30
62237;BME280;69163;48.778;2.308;2023-08-07T06:52:00;101322.00;;;18.18;42.31
62237;BME280;69163;48.778;2.308;2023-08-07T06:54:25;101323.67;;;18.43;42.27
62237;BME280;69163;48.778;2.308;2023-08-07T06:56:50;101330.60;;;18.08;42.43
62237;BME280;69163;48.778;2.308;2023-08-07T06:59:15;101334.47;;;18.09;42.43
62237;BME280;69163;48.778;2.308;2023-08-07T07:01:40;101339.69;;;18.32;42.44
62237;BME280;69163;48.778;2.308;2023-08-07T07:04:06;101343.53;;;17.85;42.45
62237;BME280;69163;48.778;2.308;2023-08-07T07:06:31;101342.42;;;18.11;42.45
62237;BME280;69163;48.778;2.308;2023-08-07T07:08:56;101346.41;;;18.11;42.47
62237;BME280;69163;48.778;2.308;2023-08-07T07:11:21;101350.68;;;18.10;42.48
62237;BME280;69163;48.778;2.308;2023-08-07T07:13:46;101348.69;;;18.20;42.65
62237;BME280;69163;48.778;2.308;2023-08-07T07:16:11;101351.53;;;17.99;42.63
62237;BME280;69163;48.778;2.308;2023-08-07T07:18:37;101353.81;;;18.23;42.61
62237;BME280;69163;48.778;2.308;2023-08-07T07:21:02;101356.08;;;17.84;42.50
62237;BME280;69163;48.778;2.308;2023-08-07T07:23:27;101355.79;;;18.18;42.38
62237;BME280;69163;48.778;2.308;2023-08-07T07:25:52;101354.86;;;18.14;42.41
62237;BME280;69163;48.778;2.308;2023-08-07T07:28:17;101356.00;;;17.92;42.41
62237;BME280;69163;48.778;2.308;2023-08-07T07:30:42;101356.44;;;18.14;42.46
62237;BME280;69163;48.778;2.308;2023-08-07T07:33:08;101360.23;;;18.14;42.49
62237;BME280;69163;48.778;2.308;2023-08-07T07:35:37;101358.02;;;18.10;42.53
62237;BME280;69163;48.778;2.308;2023-08-07T07:37:58;101359.19;;;18.03;42.63
62237;BME280;69163;48.778;2.308;2023-08-07T07:40:23;101358.48;;;18.01;42.64
62237;BME280;69163;48.778;2.308;2023-08-07T07:42:48;101356.74;;;18.29;42.59
62237;BME280;69163;48.778;2.308;2023-08-07T07:45:14;101359.49;;;17.78;42.66
62237;BME280;69163;48.778;2.308;2023-08-07T07:47:39;101356.98;;;18.19;42.78
62237;BME280;69163;48.778;2.308;2023-08-07T07:50:07;101354.21;;;17.74;42.74
62237;BME280;69163;48.778;2.308;2023-08-07T07:52:29;101356.85;;;18.21;42.77
62237;BME280;69163;48.778;2.308;2023-08-07T07:54:54;101362.81;;;17.75;42.74
62237;BME280;69163;48.778;2.308;2023-08-07T07:57:19;101362.39;;;17.99;42.75
62237;BME280;69163;48.778;2.308;2023-08-07T07:59:44;101364.22;;;18.21;42.77
62237;BME280;69163;48.778;2.308;2023-08-07T08:02:09;101375.93;;;17.98;42.80
62237;BME280;69163;48.778;2.308;2023-08-07T08:04:35;101377.00;;;17.95;42.80
62237;BME280;69163;48.778;2.308;2023-08-07T08:07:00;101377.71;;;17.94;42.84
62237;BME280;69163;48.778;2.308;2023-08-07T08:09:26;101378.62;;;18.17;42.87
62237;BME280;69163;48.778;2.308;2023-08-07T08:11:51;101378.08;;;18.19;42.86
62237;BME280;69163;48.778;2.308;2023-08-07T08:14:16;101378.49;;;17.72;42.85
62237;BME280;69163;48.778;2.308;2023-08-07T08:16:41;101382.20;;;18.19;42.86
62237;BME280;69163;48.778;2.308;2023-08-07T08:19:07;101382.34;;;17.72;42.85
62237;BME280;69163;48.778;2.308;2023-08-07T08:21:31;101382.90;;;17.99;42.78
62237;BME280;69163;48.778;2.308;2023-08-07T08:23:57;101388.92;;;18.07;42.69
62237;BME280;69163;48.778;2.308;2023-08-07T08:26:22;101392.45;;;18.08;42.70
62237;BME280;69163;48.778;2.308;2023-08-07T08:28:47;101390.39;;;17.81;42.78
62237;BME280;69163;48.778;2.308;2023-08-07T08:31:12;101385.68;;;17.77;42.81
62237;BME280;69163;48.778;2.308;2023-08-07T08:33:37;101381.13;;;17.77;42.84
62237;BME280;69163;48.778;2.308;2023-08-07T08:36:02;101381.14;;;18.32;42.76
62237;BME280;69163;48.778;2.308;2023-08-07T08:38:27;101379.94;;;18.12;42.69
62237;BME280;69163;48.778;2.308;2023-08-07T08:40:53;101380.96;;;18.23;42.86
62237;BME280;69163;48.778;2.308;2023-08-07T08:43:19;101384.61;;;18.24;42.86
62237;BME280;69163;48.778;2.308;2023-08-07T08:45:44;101388.30;;;18.23;42.90
62237;BME280;69163;48.778;2.308;2023-08-07T08:48:11;101387.96;;;17.70;43.01
62237;BME280;69163;48.778;2.308;2023-08-07T08:50:35;101389.28;;;18.23;42.94
62237;BME280;69163;48.778;2.308;2023-08-07T08:53:00;101385.42;;;18.68;42.96
62237;BME280;69163;48.778;2.308;2023-08-07T08:55:25;101380.15;;;17.95;42.99
62237;BME280;69163;48.778;2.308;2023-08-07T08:57:51;101379.06;;;17.99;42.96
62237;BME280;69163;48.778;2.308;2023-08-07T09:00:16;101381.24;;;18.01;42.90
62237;BME280;69163;48.778;2.308;2023-08-07T09:02:41;101381.42;;;18.26;42.90
62237;BME280;69163;48.778;2.308;2023-08-07T09:05:07;101374.18;;;18.27;42.90
62237;BME280;69163;48.778;2.308;2023-08-07T09:07:31;101378.78;;;18.02;42.93
62237;BME280;69163;48.778;2.308;2023-08-07T09:09:56;101381.00;;;17.93;43.08
62237;BME280;69163;48.778;2.308;2023-08-07T09:12:25;101379.04;;;17.72;43.06
62237;BME280;69163;48.778;2.308;2023-08-07T09:14:49;101382.26;;;17.96;43.07
62237;BME280;69163;48.778;2.308;2023-08-07T09:17:13;101389.70;;;17.96;43.06
62237;BME280;69163;48.778;2.308;2023-08-07T09:19:37;101391.72;;;18.30;42.94
62237;BME280;69163;48.778;2.308;2023-08-07T09:22:02;101393.67;;;18.26;42.97
62237;BME280;69163;48.778;2.308;2023-08-07T09:24:28;101395.88;;;18.01;43.00
62237;BME280;69163;48.778;2.308;2023-08-07T09:26:53;101394.68;;;18.04;43.00
62237;BME280;69163;48.778;2.308;2023-08-07T09:29:18;101390.69;;;17.97;43.08
62237;BME280;69163;48.778;2.308;2023-08-07T09:31:44;101387.47;;;17.98;43.09
62237;BME280;69163;48.778;2.308;2023-08-07T09:34:09;101389.15;;;18.08;43.01
62237;BME280;69163;48.778;2.308;2023-08-07T09:36:34;101385.60;;;17.76;43.07
62237;BME280;69163;48.778;2.308;2023-08-07T09:39:01;101385.77;;;18.25;43.10
62237;BME280;69163;48.778;2.308;2023-08-07T09:41:24;101387.06;;;18.18;43.15
62237;BME280;69163;48.778;2.308;2023-08-07T09:43:49;101391.83;;;17.83;42.97
62237;BME280;69163;48.778;2.308;2023-08-07T09:46:15;101396.77;;;18.26;43.10
62237;BME280;69163;48.778;2.308;2023-08-07T09:48:41;101391.41;;;18.03;43.09
62237;BME280;69163;48.778;2.308;2023-08-07T09:51:05;101391.27;;;17.98;43.11
62237;BME280;69163;48.778;2.308;2023-08-07T09:53:31;101386.47;;;18.02;43.09
62237;BME280;69163;48.778;2.308;2023-08-07T09:55:55;101385.09;;;18.13;42.97
62237;BME280;69163;48.778;2.308;2023-08-07T09:58:21;101390.86;;;18.34;42.99
62237;BME280;69163;48.778;2.308;2023-08-07T10:00:47;101383.75;;;18.05;43.05
62237;BME280;69163;48.778;2.308;2023-08-07T10:03:11;101381.92;;;17.82;43.01
62237;BME280;69163;48.778;2.308;2023-08-07T10:05:36;101385.57;;;18.14;42.92
62237;BME280;69163;48.778;2.308;2023-08-07T10:08:02;101389.79;;;18.11;42.96
62237;BME280;69163;48.778;2.308;2023-08-07T10:10:27;101381.83;;;17.85;43.00
62237;BME280;69163;48.778;2.308;2023-08-07T10:12:52;101381.87;;;18.09;43.00
62237;BME280;69163;48.778;2.308;2023-08-07T10:15:18;101381.89;;;17.81;43.02
62237;BME280;69163;48.778;2.308;2023-08-07T10:17:42;101379.19;;;18.26;43.09
62237;BME280;69163;48.778;2.308;2023-08-07T10:20:09;101372.12;;;17.85;42.96
62237;BME280;69163;48.778;2.308;2023-08-07T10:22:32;101368.96;;;18.09;42.96
62237;BME280;69163;48.778;2.308;2023-08-07T10:25:00;101365.50;;;17.81;43.02
62237;BME280;69163;48.778;2.308;2023-08-07T10:27:24;101370.34;;;17.79;43.06
62237;BME280;69163;48.778;2.308;2023-08-07T10:29:49;101372.56;;;18.09;42.99
62237;BME280;69163;48.778;2.308;2023-08-07T10:32:14;101368.69;;;17.82;43.04
62237;BME280;69163;48.778;2.308;2023-08-07T10:34:38;101367.43;;;18.09;42.93
62237;BME280;69163;48.778;2.308;2023-08-07T10:37:07;101369.45;;;17.88;42.91
62237;BME280;69163;48.778;2.308;2023-08-07T10:39:28;101368.49;;;18.13;42.88
62237;BME280;69163;48.778;2.308;2023-08-07T10:41:54;101368.58;;;18.40;42.82
62237;BME280;69163;48.778;2.308;2023-08-07T10:44:20;101365.45;;;18.19;42.74
62237;BME280;69163;48.778;2.308;2023-08-07T10:46:49;101369.69;;;17.91;42.80
62237;BME280;69163;48.778;2.308;2023-08-07T10:49:09;101379.26;;;17.87;42.95
62237;BME280;69163;48.778;2.308;2023-08-07T10:51:36;101371.04;;;18.21;42.76
62237;BME280;69163;48.778;2.308;2023-08-07T10:54:02;101364.84;;;18.45;42.67
62237;BME280;69163;48.778;2.308;2023-08-07T10:56:31;101360.21;;;18.22;42.73
62237;BME280;69163;48.778;2.308;2023-08-07T10:58:51;101353.68;;;18.46;42.68
62237;BME280;69163;48.778;2.308;2023-08-07T11:01:18;101359.00;;;18.18;42.76
62237;BME280;69163;48.778;2.308;2023-08-07T11:03:41;101361.64;;;18.11;42.88
62237;BME280;69163;48.778;2.308;2023-08-07T11:06:08;101361.75;;;18.17;42.80
62237;BME280;69163;48.778;2.308;2023-08-07T11:08:31;101362.21;;;18.39;42.81
62237;BME280;69163;48.778;2.308;2023-08-07T11:13:22;101356.25;;;17.89;42.89
62237;BME280;69163;48.778;2.308;2023-08-07T11:15:47;101356.24;;;18.20;42.70
62237;BME280;69163;48.778;2.308;2023-08-07T11:18:12;101347.24;;;18.01;42.64
62237;BME280;69163;48.778;2.308;2023-08-07T11:20:37;101342.02;;;18.05;42.60
62237;BME280;69163;48.778;2.308;2023-08-07T11:23:02;101340.18;;;17.98;42.68
62237;BME280;69163;48.778;2.308;2023-08-07T11:25:28;101340.90;;;17.89;42.79
62237;BME280;69163;48.778;2.308;2023-08-07T11:27:54;101333.85;;;18.18;42.72
62237;BME280;69163;48.778;2.308;2023-08-07T11:30:18;101334.19;;;17.97;42.72
62237;BME280;69163;48.778;2.308;2023-08-07T11:32:43;101335.96;;;17.99;42.68
62237;BME280;69163;48.778;2.308;2023-08-07T11:35:09;101337.52;;;17.92;42.77
62237;BME280;69163;48.778;2.308;2023-08-07T11:37:33;101334.64;;;18.04;42.60
62237;BME280;69163;48.778;2.308;2023-08-07T11:40:01;101334.18;;;18.11;42.79
62237;BME280;69163;48.778;2.308;2023-08-07T11:42:28;101339.40;;;18.14;42.78
62237;BME280;69163;48.778;2.308;2023-08-07T11:44:49;101333.89;;;17.95;42.72
62237;BME280;69163;48.778;2.308;2023-08-07T11:47:15;101330.63;;;18.22;42.66
62237;BME280;69163;48.778;2.308;2023-08-07T11:49:40;101333.19;;;18.43;42.68
62237;BME280;69163;48.778;2.308;2023-08-07T11:52:06;101330.47;;;18.41;42.75
62237;BME280;69163;48.778;2.308;2023-08-07T11:54:30;101324.21;;;18.25;42.60
62237;BME280;69163;48.778;2.308;2023-08-07T11:56:55;101325.00;;;18.32;42.50
62237;BME280;69163;48.778;2.308;2023-08-07T11:59:20;101321.65;;;18.07;42.52
62237;BME280;69163;48.778;2.308;2023-08-07T12:01:46;101316.88;;;18.06;42.48
62237;BME280;69163;48.778;2.308;2023-08-07T12:04:11;101315.20;;;17.80;42.50
62237;BME280;69163;48.778;2.308;2023-08-07T12:06:36;101316.25;;;18.12;42.38
62237;BME280;69163;48.778;2.308;2023-08-07T12:09:02;101311.53;;;18.30;42.47
62237;BME280;69163;48.778;2.308;2023-08-07T12:11:28;101309.33;;;18.50;42.50
62237;BME280;69163;48.778;2.308;2023-08-07T12:13:52;101307.51;;;18.46;42.56
62237;BME280;69163;48.778;2.308;2023-08-07T12:16:17;101302.90;;;18.50;42.56
62237;BME280;69163;48.778;2.308;2023-08-07T12:18:44;101294.24;;;18.26;42.50
62237;BME280;69163;48.778;2.308;2023-08-07T12:21:08;101299.86;;;18.07;42.45
62237;BME280;69163;48.778;2.308;2023-08-07T12:23:34;101298.54;;;18.31;42.45
62237;BME280;69163;48.778;2.308;2023-08-07T12:25:58;101299.82;;;18.17;42.34
62237;BME280;69163;48.778;2.308;2023-08-07T12:28:24;101293.79;;;18.28;42.50
62237;BME280;69163;48.778;2.308;2023-08-07T12:30:50;101287.68;;;18.09;42.43
62237;BME280;69163;48.778;2.308;2023-08-07T12:33:14;101282.61;;;18.01;42.58
62237;BME280;69163;48.778;2.308;2023-08-07T12:35:39;101279.07;;;18.44;42.64
62237;BME280;69163;48.778;2.308;2023-08-07T12:38:05;101279.62;;;18.03;42.55
62237;BME280;69163;48.778;2.308;2023-08-07T12:40:30;101278.38;;;17.99;42.57
62237;BME280;69163;48.778;2.308;2023-08-07T12:42:55;101279.75;;;18.09;42.48